Blooming Grove, Ohio
Current Conditions -  °F | °C
As of 9:07 PM on Friday 31 Oct 2014 (Local Time) from KMNN Reporting Station
Light Rain Light Rain  
Wind Chill: 28°   Ceiling: 900
Heat Index: 38°   Visibility: 8mi
Dew Point: 35°   Wind: 21mph
Humidity: 89%   Direction: 360°N
Pressure: 29.94"   Gusts: 28mph
Location:  40.712°N, 82.796°W
Report Text: KMNN 010107Z AUTO 36018G24KT 8SM -RA BKN009 OVC015 03/02 A2994 RMK AO2 PK WND 01027/0054 P0000 T00330017 TSNO
Loading
Personal Weather Stations






























Interactive Weather Map
Tropical Storm Tracking
New forecast layout! Learn more

10-Day Weather Forecast

Advertisements
Track Severe Weather on mobile